createdAt,value
2022-07-29T00:01:08.863Z,1.85
2022-07-29T00:03:46.858Z,1.60
2022-07-29T00:06:14.726Z,1.80
2022-07-29T00:08:41.833Z,1.50
2022-07-29T00:11:08.908Z,2.00
2022-07-29T00:13:36.032Z,1.90
2022-07-29T00:16:04.481Z,1.63
2022-07-29T00:18:33.170Z,2.67
2022-07-29T00:21:00.750Z,1.40
2022-07-29T00:23:28.006Z,1.70
2022-07-29T00:25:55.041Z,1.55
2022-07-29T00:28:22.062Z,2.03
2022-07-29T00:30:49.161Z,1.60
2022-07-29T00:33:16.258Z,2.20
2022-07-29T00:35:46.337Z,1.65
2022-07-29T00:38:15.610Z,1.80
2022-07-29T00:40:43.976Z,1.70
2022-07-29T00:43:12.892Z,1.98
2022-07-29T00:45:39.975Z,1.63
2022-07-29T00:48:09.786Z,1.80
2022-07-29T00:50:38.073Z,2.17
2022-07-29T00:53:07.921Z,1.77
2022-07-29T00:55:35.445Z,1.80
2022-07-29T00:58:02.778Z,1.75
2022-07-29T01:00:30.554Z,1.92
2022-07-29T01:02:57.791Z,2.10
2022-07-29T01:05:50.710Z,1.98
2022-07-29T01:08:16.583Z,2.42
2022-07-29T01:10:45.620Z,2.13
2022-07-29T01:13:13.654Z,1.70
2022-07-29T01:15:50.784Z,1.83
2022-07-29T01:18:23.574Z,2.13
2022-07-29T01:21:29.781Z,1.92
2022-07-29T01:24:31.447Z,1.85
2022-07-29T01:27:36.794Z,1.83
2022-07-29T01:30:05.438Z,2.20
2022-07-29T01:32:38.504Z,1.90
2022-07-29T01:35:21.978Z,2.22
2022-07-29T01:38:02.841Z,2.10
2022-07-29T01:40:29.946Z,1.90
2022-07-29T01:42:59.432Z,1.85
2022-07-29T01:45:38.292Z,2.20
2022-07-29T01:48:11.703Z,2.35
2022-07-29T01:50:51.816Z,2.03
2022-07-29T01:53:43.853Z,2.00
2022-07-29T01:56:13.484Z,2.70
2022-07-29T01:58:42.882Z,2.10
2022-07-29T02:01:11.129Z,2.33
2022-07-29T02:03:40.626Z,1.80
2022-07-29T02:06:10.573Z,2.20
2022-07-29T02:08:40.211Z,2.03
2022-07-29T02:11:09.611Z,2.25
2022-07-29T02:13:38.745Z,2.70
2022-07-29T02:16:08.646Z,1.88
2022-07-29T02:18:38.793Z,2.30
2022-07-29T02:21:06.442Z,2.60
2022-07-29T02:23:50.458Z,1.98
2022-07-29T02:26:21.701Z,2.20
2022-07-29T02:28:51.491Z,2.97
2022-07-29T02:31:23.135Z,2.00
2022-07-29T02:33:53.017Z,2.40
2022-07-29T02:36:23.291Z,2.30
2022-07-29T02:41:27.501Z,1.90
2022-07-29T02:44:04.974Z,2.58
2022-07-29T02:46:39.137Z,2.47
2022-07-29T02:49:28.323Z,2.10
2022-07-29T02:52:13.622Z,2.13
2022-07-29T02:54:47.379Z,2.30
2022-07-29T02:57:56.296Z,2.40
2022-07-29T03:00:28.612Z,2.58
2022-07-29T03:02:59.862Z,2.45
2022-07-29T03:05:27.893Z,3.33
2022-07-29T03:08:02.974Z,2.70
2022-07-29T03:10:31.381Z,2.72
2022-07-29T03:12:59.333Z,2.90
2022-07-29T03:15:27.134Z,2.65
2022-07-29T03:17:55.118Z,2.92
2022-07-29T03:20:22.460Z,2.92
2022-07-29T03:22:50.460Z,2.97
2022-07-29T03:25:20.417Z,3.17
2022-07-29T03:27:49.311Z,3.08
2022-07-29T03:30:21.995Z,2.80
2022-07-29T03:32:52.075Z,2.60
2022-07-29T03:35:23.777Z,3.22
2022-07-29T03:37:51.250Z,3.08
2022-07-29T03:40:27.218Z,3.38
2022-07-29T03:42:56.477Z,3.75
2022-07-29T03:45:25.574Z,2.90
2022-07-29T03:48:01.526Z,3.00
2022-07-29T03:50:31.418Z,3.20
2022-07-29T03:52:58.897Z,3.55
2022-07-29T03:55:27.634Z,3.60
2022-07-29T03:57:57.098Z,3.95
2022-07-29T04:00:26.897Z,3.77
2022-07-29T04:02:54.060Z,3.15
2022-07-29T04:05:21.155Z,3.63
2022-07-29T04:07:49.270Z,3.45
2022-07-29T04:10:25.234Z,3.28
2022-07-29T04:12:59.337Z,3.50
2022-07-29T04:15:26.534Z,3.25
2022-07-29T04:17:59.511Z,3.90
2022-07-29T04:20:26.945Z,3.35
2022-07-29T04:22:54.114Z,4.32
2022-07-29T04:25:21.290Z,3.78
2022-07-29T04:28:03.347Z,3.90
2022-07-29T04:30:32.196Z,3.70
2022-07-29T04:32:59.849Z,3.38
2022-07-29T04:35:27.061Z,3.55
2022-07-29T04:37:54.347Z,2.80
2022-07-29T04:40:21.700Z,3.03
2022-07-29T04:42:49.541Z,2.53
2022-07-29T04:45:16.897Z,3.15
2022-07-29T04:47:50.253Z,2.70
2022-07-29T04:50:17.822Z,3.05
2022-07-29T04:52:45.147Z,2.92
2022-07-29T04:55:12.382Z,2.70
2022-07-29T04:57:39.411Z,2.58
2022-07-29T05:00:07.919Z,2.95
2022-07-29T05:02:35.248Z,3.13
2022-07-29T05:05:02.412Z,2.88
2022-07-29T05:07:29.575Z,2.80
2022-07-29T05:09:58.171Z,3.30
2022-07-29T05:12:25.931Z,3.20
2022-07-29T05:14:53.514Z,3.10
2022-07-29T05:17:20.566Z,3.50
2022-07-29T05:19:47.612Z,3.10
2022-07-29T05:22:14.661Z,3.55
2022-07-29T05:24:42.003Z,4.20
2022-07-29T05:27:09.052Z,3.30
2022-07-29T05:29:44.088Z,4.00
2022-07-29T05:32:14.053Z,4.35
2022-07-29T05:34:50.353Z,4.20
2022-07-29T05:37:20.862Z,5.07
2022-07-29T05:39:50.363Z,5.05
2022-07-29T05:42:24.135Z,4.40
2022-07-29T05:44:51.230Z,4.55
2022-07-29T05:47:18.348Z,4.97
2022-07-29T05:49:45.507Z,4.75
2022-07-29T05:52:14.353Z,5.20
2022-07-29T05:54:41.947Z,4.82
2022-07-29T05:57:09.044Z,4.88
2022-07-29T05:59:39.307Z,4.72
2022-07-29T06:02:06.475Z,5.15
2022-07-29T06:04:34.794Z,5.55
2022-07-29T06:07:02.921Z,5.20
2022-07-29T06:09:30.494Z,5.38
2022-07-29T06:11:59.104Z,4.45
2022-07-29T06:14:27.860Z,4.78
2022-07-29T06:16:55.261Z,5.57
2022-07-29T06:19:22.758Z,4.82
2022-07-29T06:21:49.920Z,5.22
2022-07-29T06:24:17.566Z,5.55
2022-07-29T06:26:45.060Z,5.05
2022-07-29T06:29:12.284Z,5.43
2022-07-29T06:31:40.295Z,5.75
2022-07-29T06:34:07.802Z,4.95
2022-07-29T06:36:39.735Z,6.10
2022-07-29T06:39:09.178Z,5.35
2022-07-29T06:41:36.745Z,5.68
2022-07-29T06:44:10.312Z,5.50
2022-07-29T06:46:37.720Z,5.60
2022-07-29T06:49:05.645Z,5.20
2022-07-29T06:51:32.824Z,5.65
2022-07-29T06:54:02.783Z,5.13
2022-07-29T06:56:38.141Z,5.03
2022-07-29T06:59:08.196Z,3.90
2022-07-29T07:01:37.131Z,4.22
2022-07-29T07:04:04.325Z,3.72
2022-07-29T07:06:31.386Z,4.88
2022-07-29T07:08:58.860Z,4.50
2022-07-29T07:11:26.000Z,4.60
2022-07-29T07:13:53.172Z,3.80
2022-07-29T07:16:20.387Z,4.00
2022-07-29T07:18:47.561Z,3.80
2022-07-29T07:21:18.891Z,4.13
2022-07-29T07:23:47.538Z,3.63
2022-07-29T07:26:15.899Z,3.30
2022-07-29T07:28:43.195Z,3.58
2022-07-29T07:31:10.796Z,3.67
2022-07-29T07:33:37.901Z,3.10
2022-07-29T07:36:05.257Z,3.20
2022-07-29T07:38:32.504Z,3.03
2022-07-29T07:41:00.135Z,2.97
2022-07-29T07:43:27.185Z,2.60
2022-07-29T07:45:54.372Z,2.60
2022-07-29T07:48:21.905Z,2.90
2022-07-29T07:50:50.511Z,2.40
2022-07-29T07:53:17.967Z,2.70
2022-07-29T07:56:09.282Z,2.17
2022-07-29T07:58:32.535Z,1.80
2022-07-29T08:00:59.686Z,1.90
2022-07-29T08:03:27.539Z,1.77
2022-07-29T08:05:55.456Z,2.13
2022-07-29T08:08:22.681Z,1.80
2022-07-29T08:11:02.143Z,1.67
2022-07-29T08:13:33.255Z,1.48
2022-07-29T08:16:02.847Z,1.40
2022-07-29T08:18:32.090Z,1.40
2022-07-29T08:21:00.002Z,1.50
2022-07-29T08:23:45.501Z,1.58
2022-07-29T08:26:14.845Z,1.45
2022-07-29T08:28:47.207Z,1.52
2022-07-29T08:31:15.178Z,1.30
2022-07-29T08:33:43.112Z,1.27
2022-07-29T08:36:10.837Z,1.38
2022-07-29T08:38:38.260Z,1.75
2022-07-29T08:41:05.781Z,1.27
2022-07-29T08:43:33.498Z,0.90
2022-07-29T08:46:01.937Z,1.25
2022-07-29T08:48:29.184Z,1.40
2022-07-29T08:50:57.809Z,1.40
2022-07-29T08:53:27.936Z,1.27
2022-07-29T08:58:25.253Z,1.17
2022-07-29T09:00:56.088Z,1.60
2022-07-29T09:05:54.917Z,1.10
2022-07-29T09:08:22.717Z,1.25
2022-07-29T09:10:50.645Z,1.33
2022-07-29T09:13:17.817Z,1.30
2022-07-29T09:15:46.188Z,1.05
2022-07-29T09:18:20.458Z,1.42
2022-07-29T09:21:16.870Z,2.00
2022-07-29T09:24:08.205Z,1.33
2022-07-29T09:26:46.654Z,1.48
2022-07-29T09:29:22.256Z,1.75
2022-07-29T09:31:53.786Z,1.65
2022-07-29T09:34:29.636Z,1.70
2022-07-29T09:36:57.308Z,1.27
2022-07-29T09:39:33.301Z,1.30
2022-07-29T09:42:05.523Z,1.75
2022-07-29T09:44:50.305Z,1.40
2022-07-29T09:47:19.870Z,1.80
2022-07-29T09:49:54.636Z,1.60
2022-07-29T09:52:22.620Z,1.90
2022-07-29T09:54:49.908Z,1.55
2022-07-29T09:57:31.111Z,1.70
2022-07-29T09:59:59.439Z,1.60
2022-07-29T10:02:34.571Z,1.83
2022-07-29T10:05:04.624Z,1.63
2022-07-29T10:07:53.954Z,1.20
2022-07-29T10:10:26.371Z,1.67
2022-07-29T10:13:01.871Z,1.50
2022-07-29T10:15:39.665Z,1.98
2022-07-29T10:18:07.912Z,1.70
2022-07-29T10:20:35.947Z,1.90
2022-07-29T10:23:03.828Z,1.65
2022-07-29T10:25:31.776Z,1.38
2022-07-29T10:27:58.945Z,1.58
2022-07-29T10:30:27.180Z,1.80
2022-07-29T10:32:56.987Z,1.70
2022-07-29T10:35:45.361Z,1.50
2022-07-29T10:38:47.215Z,1.50
2022-07-29T10:42:06.403Z,1.52
2022-07-29T10:44:37.558Z,1.60
2022-07-29T10:47:04.880Z,1.10
2022-07-29T10:49:32.270Z,1.20
2022-07-29T10:52:09.767Z,1.35
2022-07-29T10:54:43.833Z,1.50
2022-07-29T10:57:16.701Z,1.55
2022-07-29T10:59:46.634Z,1.25
2022-07-29T11:02:41.450Z,1.17
2022-07-29T11:05:12.226Z,1.50
2022-07-29T11:07:46.041Z,1.45
2022-07-29T11:10:14.033Z,1.92
2022-07-29T11:12:44.793Z,1.20
2022-07-29T11:15:31.750Z,1.50
2022-07-29T11:18:00.352Z,1.10
2022-07-29T11:20:49.904Z,1.23
2022-07-29T11:23:25.327Z,1.38
2022-07-29T11:26:12.871Z,1.17
2022-07-29T11:28:55.542Z,1.30
2022-07-29T11:31:36.443Z,1.20
2022-07-29T11:34:23.082Z,1.48
2022-07-29T11:37:14.792Z,1.40
2022-07-29T11:39:44.790Z,1.35
2022-07-29T11:45:43.862Z,1.20
2022-07-29T11:48:28.912Z,1.10
2022-07-29T11:50:54.524Z,1.08
2022-07-29T11:53:22.107Z,1.10
2022-07-29T11:55:58.363Z,0.90
2022-07-29T11:58:26.426Z,1.00
2022-07-29T12:03:43.698Z,1.50
2022-07-29T12:06:15.716Z,1.30
2022-07-29T12:07:03.694Z,1.10
2022-07-29T12:08:46.152Z,1.30
2022-07-29T12:11:23.461Z,0.90
2022-07-29T12:13:52.756Z,1.00
2022-07-29T12:16:29.262Z,1.00
2022-07-29T12:19:02.334Z,1.08
2022-07-29T12:21:31.083Z,1.10
2022-07-29T12:24:05.625Z,1.40
2022-07-29T12:26:36.404Z,1.27
2022-07-29T12:29:04.503Z,1.00
2022-07-29T12:31:42.168Z,1.10
2022-07-29T12:34:17.044Z,1.35
2022-07-29T12:36:44.826Z,1.30
2022-07-29T12:39:13.570Z,1.35
2022-07-29T12:41:40.888Z,1.40
2022-07-29T12:44:08.141Z,1.25
2022-07-29T12:46:35.884Z,1.17
2022-07-29T12:49:04.114Z,1.30
2022-07-29T12:51:35.035Z,1.20
2022-07-29T12:54:06.674Z,1.08
2022-07-29T12:56:43.199Z,1.10
2022-07-29T12:59:22.804Z,1.08
2022-07-29T13:01:53.614Z,1.45
2022-07-29T13:04:32.463Z,1.20
2022-07-29T13:07:07.187Z,1.77
2022-07-29T13:09:38.603Z,1.20
2022-07-29T13:12:13.552Z,1.30
2022-07-29T13:14:48.211Z,1.00
2022-07-29T13:17:21.921Z,1.00
2022-07-29T13:19:54.152Z,1.20
2022-07-29T13:22:25.673Z,1.40
2022-07-29T13:24:57.698Z,1.45
2022-07-29T13:27:27.071Z,1.50
2022-07-29T13:29:57.723Z,1.33
2022-07-29T13:32:28.697Z,1.10
2022-07-29T13:35:01.324Z,1.50
2022-07-29T13:37:34.123Z,1.38
2022-07-29T13:40:01.474Z,1.20
2022-07-29T13:42:28.954Z,1.20
2022-07-29T13:44:56.283Z,1.35
2022-07-29T13:47:32.550Z,1.05
2022-07-29T13:50:01.984Z,1.30
2022-07-29T13:52:29.292Z,1.38
2022-07-29T13:54:56.552Z,1.58
2022-07-29T13:57:23.914Z,1.35
2022-07-29T13:59:54.342Z,1.45
2022-07-29T14:02:25.791Z,1.30
2022-07-29T14:04:55.055Z,1.30
2022-07-29T14:07:22.943Z,1.30
2022-07-29T14:09:50.084Z,1.35
2022-07-29T14:12:17.462Z,1.40
2022-07-29T14:14:44.965Z,1.13
2022-07-29T14:17:15.049Z,1.02
2022-07-29T14:19:42.281Z,1.30
2022-07-29T14:22:10.785Z,1.23
2022-07-29T14:24:38.450Z,1.30
2022-07-29T14:27:08.045Z,1.58
2022-07-29T14:29:37.201Z,1.30
2022-07-29T14:32:11.497Z,1.30
2022-07-29T14:34:39.423Z,1.48
2022-07-29T14:37:07.910Z,1.33
2022-07-29T14:39:42.792Z,1.35
2022-07-29T14:42:12.847Z,1.50
2022-07-29T14:44:42.674Z,1.55
2022-07-29T14:47:10.245Z,1.20
2022-07-29T14:49:37.472Z,1.35
2022-07-29T14:52:04.995Z,1.23
2022-07-29T14:54:32.233Z,1.23
2022-07-29T14:56:59.587Z,1.38
2022-07-29T14:59:27.498Z,1.33
2022-07-29T15:01:55.002Z,1.60
2022-07-29T15:04:22.223Z,1.20
2022-07-29T15:06:49.673Z,1.30
2022-07-29T15:09:17.231Z,2.20
2022-07-29T15:11:44.921Z,1.40
2022-07-29T15:14:12.351Z,1.30
2022-07-29T15:16:43.577Z,1.40
2022-07-29T15:19:11.256Z,1.58
2022-07-29T15:21:41.338Z,2.05
2022-07-29T15:24:15.989Z,1.60
2022-07-29T15:26:44.768Z,1.27
2022-07-29T15:29:12.008Z,1.33
2022-07-29T15:31:39.716Z,1.10
2022-07-29T15:34:07.869Z,1.70
2022-07-29T15:36:51.609Z,1.40
2022-07-29T15:39:21.934Z,1.00
2022-07-29T15:41:49.670Z,1.08
2022-07-29T15:44:16.756Z,1.20
2022-07-29T15:47:02.757Z,1.45
2022-07-29T15:49:46.594Z,1.20
2022-07-29T15:52:26.251Z,1.38
2022-07-29T15:54:56.325Z,1.40
2022-07-29T15:57:23.958Z,1.60
2022-07-29T15:59:52.177Z,1.23
2022-07-29T16:02:19.933Z,1.15
2022-07-29T16:04:47.453Z,1.35
2022-07-29T16:07:15.660Z,1.15
2022-07-29T16:09:43.793Z,1.95
2022-07-29T16:12:15.111Z,1.50
2022-07-29T16:14:44.180Z,1.30
2022-07-29T16:17:14.807Z,1.20
2022-07-29T16:19:43.660Z,1.30
2022-07-29T16:22:11.113Z,1.33
2022-07-29T16:24:39.505Z,1.38
2022-07-29T16:27:07.238Z,1.20
2022-07-29T16:29:34.520Z,2.38
2022-07-29T16:32:02.121Z,1.90
2022-07-29T16:34:29.789Z,2.40
2022-07-29T16:36:56.980Z,1.63
2022-07-29T16:39:24.389Z,1.10
2022-07-29T16:41:51.554Z,1.20
2022-07-29T16:44:18.959Z,1.40
2022-07-29T16:46:46.851Z,1.40
2022-07-29T16:49:19.283Z,1.30
2022-07-29T16:51:48.147Z,1.42
2022-07-29T16:54:15.603Z,1.10
2022-07-29T16:56:43.013Z,2.10
2022-07-29T16:59:10.411Z,1.25
2022-07-29T17:01:37.806Z,1.20
2022-07-29T17:04:08.176Z,1.10
2022-07-29T17:06:40.536Z,1.00
2022-07-29T17:09:09.335Z,1.23
2022-07-29T17:11:53.687Z,1.00
2022-07-29T17:14:27.293Z,1.05
2022-07-29T17:17:01.155Z,1.23
2022-07-29T17:19:35.658Z,1.30
2022-07-29T17:22:11.585Z,1.23
2022-07-29T17:24:42.184Z,1.13
2022-07-29T17:27:10.513Z,1.20
2022-07-29T17:29:39.227Z,1.25
2022-07-29T17:32:07.824Z,1.20
2022-07-29T17:34:36.636Z,1.17
2022-07-29T17:37:05.683Z,1.50
2022-07-29T17:39:35.292Z,1.55
2022-07-29T17:42:05.904Z,1.30
2022-07-29T17:44:36.121Z,1.38
2022-07-29T17:47:05.022Z,1.60
2022-07-29T17:49:33.010Z,1.25
2022-07-29T17:52:03.637Z,1.48
2022-07-29T17:54:30.898Z,1.00
2022-07-29T17:56:58.266Z,1.20
2022-07-29T17:59:26.247Z,1.10
2022-07-29T18:01:53.485Z,1.13
2022-07-29T18:04:23.651Z,1.08
2022-07-29T18:09:17.798Z,1.13
2022-07-29T18:11:45.915Z,1.40
2022-07-29T18:14:13.759Z,1.20
2022-07-29T18:16:40.946Z,1.92
2022-07-29T18:19:08.248Z,1.58
2022-07-29T18:21:43.429Z,1.85
2022-07-29T18:24:23.390Z,2.05
2022-07-29T18:26:50.528Z,1.92
2022-07-29T18:29:17.649Z,2.15
2022-07-29T18:31:44.821Z,1.40
2022-07-29T18:34:12.029Z,2.10
2022-07-29T18:36:39.178Z,1.90
2022-07-29T18:39:06.490Z,1.50
2022-07-29T18:41:34.108Z,1.50
2022-07-29T18:44:01.308Z,1.60
2022-07-29T18:46:28.580Z,2.00
2022-07-29T18:48:57.522Z,1.73
2022-07-29T18:51:24.709Z,1.70
2022-07-29T18:53:52.687Z,2.13
2022-07-29T18:56:19.980Z,1.60
2022-07-29T18:58:47.231Z,1.75
2022-07-29T19:01:16.691Z,1.50
2022-07-29T19:03:44.246Z,2.13
2022-07-29T19:06:11.634Z,2.28
2022-07-29T19:08:38.969Z,2.00
2022-07-29T19:11:06.308Z,2.13
2022-07-29T19:13:34.229Z,1.80
2022-07-29T19:16:01.582Z,1.80
2022-07-29T19:18:28.858Z,1.92
2022-07-29T19:20:56.098Z,1.85
2022-07-29T19:23:24.300Z,1.50
2022-07-29T19:25:53.568Z,1.73
2022-07-29T19:28:22.251Z,1.75
2022-07-29T19:30:49.996Z,1.83
2022-07-29T19:33:19.151Z,1.30
2022-07-29T19:35:49.325Z,1.20
2022-07-29T19:38:18.937Z,1.40
2022-07-29T19:40:46.049Z,1.17
2022-07-29T19:43:50.022Z,1.48
2022-07-29T19:46:00.880Z,1.10
2022-07-29T19:48:28.128Z,1.60
2022-07-29T19:50:55.353Z,1.13
2022-07-29T19:53:22.729Z,1.30
2022-07-29T19:55:49.947Z,1.20
2022-07-29T19:58:17.065Z,1.10
2022-07-29T20:00:44.618Z,1.13
2022-07-29T20:03:13.893Z,1.40
2022-07-29T20:05:41.624Z,0.95
2022-07-29T20:08:15.075Z,1.30
2022-07-29T20:10:42.739Z,1.30
2022-07-29T20:13:10.136Z,0.70
2022-07-29T20:15:37.722Z,1.00
2022-07-29T20:18:05.423Z,0.80
2022-07-29T20:20:33.024Z,1.20
2022-07-29T20:23:01.387Z,1.00
2022-07-29T20:25:29.255Z,0.85
2022-07-29T20:27:56.858Z,1.50
2022-07-29T20:30:25.246Z,1.00
2022-07-29T20:32:53.015Z,1.15
2022-07-29T20:35:22.599Z,0.70
2022-07-29T20:37:52.400Z,0.85
2022-07-29T20:40:24.614Z,0.70
2022-07-29T20:42:53.325Z,0.90
2022-07-29T20:45:21.059Z,0.82
2022-07-29T20:47:48.466Z,0.98
2022-07-29T20:50:15.843Z,0.98
2022-07-29T20:52:44.465Z,0.95
2022-07-29T20:55:11.842Z,1.10
2022-07-29T20:57:40.222Z,1.10
2022-07-29T21:00:08.755Z,0.95
2022-07-29T21:02:36.881Z,1.10
2022-07-29T21:05:05.816Z,0.82
2022-07-29T21:07:33.255Z,1.10
2022-07-29T21:10:01.028Z,0.90
2022-07-29T21:12:30.583Z,0.90
2022-07-29T21:14:58.083Z,1.08
2022-07-29T21:17:25.564Z,0.90
2022-07-29T21:19:53.842Z,0.95
2022-07-29T21:22:22.582Z,0.88
2022-07-29T21:24:51.801Z,0.80
2022-07-29T21:27:38.304Z,1.10
2022-07-29T21:30:08.639Z,0.88
2022-07-29T21:32:37.255Z,1.10
2022-07-29T21:35:18.317Z,1.33
2022-07-29T21:37:54.326Z,1.08
2022-07-29T21:40:22.285Z,1.02
2022-07-29T21:42:49.495Z,0.90
2022-07-29T21:45:17.245Z,1.00
2022-07-29T21:47:44.483Z,1.00
2022-07-29T21:50:11.654Z,1.10
2022-07-29T21:52:39.186Z,1.30
2022-07-29T21:55:07.654Z,0.98
2022-07-29T21:57:37.832Z,0.93
2022-07-29T22:00:08.617Z,1.25
2022-07-29T22:02:39.900Z,1.13
2022-07-29T22:05:08.618Z,0.90
2022-07-29T22:07:54.628Z,0.85
2022-07-29T22:10:28.942Z,0.70
2022-07-29T22:12:57.604Z,0.95
2022-07-29T22:15:25.916Z,0.90
2022-07-29T22:17:53.393Z,0.95
2022-07-29T22:20:21.232Z,0.68
2022-07-29T22:22:48.397Z,0.90
2022-07-29T22:25:15.821Z,0.70
2022-07-29T22:27:42.991Z,1.13
2022-07-29T22:30:10.705Z,1.00
2022-07-29T22:32:37.942Z,0.70
2022-07-29T22:35:05.563Z,0.80
2022-07-29T22:37:33.064Z,0.95
2022-07-29T22:40:00.130Z,1.10
2022-07-29T22:42:27.135Z,0.93
2022-07-29T22:44:54.735Z,1.00
2022-07-29T22:47:46.081Z,1.00
2022-07-29T22:50:09.240Z,1.02
2022-07-29T22:52:36.528Z,1.00
2022-07-29T22:55:05.835Z,1.08
2022-07-29T22:57:32.951Z,0.90
2022-07-29T23:00:02.552Z,0.95
2022-07-29T23:02:30.062Z,0.88
2022-07-29T23:04:57.597Z,0.90
2022-07-29T23:07:24.923Z,0.70
2022-07-29T23:09:52.243Z,1.10
2022-07-29T23:12:19.355Z,0.98
2022-07-29T23:14:46.908Z,0.90
2022-07-29T23:17:14.085Z,1.17
2022-07-29T23:19:41.428Z,0.90
2022-07-29T23:22:08.548Z,1.08
2022-07-29T23:24:35.625Z,1.42
2022-07-29T23:27:02.853Z,1.00
2022-07-29T23:29:33.839Z,1.10
2022-07-29T23:32:03.823Z,1.10
2022-07-29T23:34:30.865Z,0.90
2022-07-29T23:36:58.146Z,0.90
2022-07-29T23:39:25.399Z,1.00
2022-07-29T23:41:52.618Z,1.10
2022-07-29T23:44:19.688Z,1.13
2022-07-29T23:46:46.837Z,1.30
2022-07-29T23:49:14.818Z,1.30
2022-07-29T23:51:42.137Z,1.00
2022-07-29T23:54:09.192Z,1.35
2022-07-29T23:56:36.258Z,1.30
2022-07-29T23:59:05.773Z,1.30
